West Melbourne, Australia

5:04 PM AEDT on December 03, 2016 (GMT +1100)
Franklin Street | | Change Station

Elev 124 ft 37.81 °S, 144.96 °E | Updated 4 minutes ago

Clear
Clear
65.3 °F
Feels Like 65.3 °F
N
1.2
Wind Variable Wind from SE
Gusts 4.3 mph

Today
High -- | Low -- °F
--% Chance of Precip.
Yesterday
High -- | Low -- °F
Precip. -- in
Pressure 29.92 in
Visibility -9999.0 miles
Clouds
Dew Point 52 °F
Humidity 61%
Rainfall 0.00 in
Snow Depth Not available.
5:51 AM 8:28 PM
Waxing Crescent, 13% visible
METAR YMML 030530Z 16010KT CAVOK 23/07 Q1013 NOSIG
Pressure 29.92 in
Visibility -9999.0 miles
Clouds
Dew Point 52 °F
Humidity 61%
Rainfall 0.00 in
Snow Depth Not available.
5:51 AM 8:28 PM
Waxing Crescent, 13% visible
METAR YMML 030530Z 16010KT CAVOK 23/07 Q1013 NOSIG

10-Day Weather Forecast

×

Almanac

Astronomy

Dec. 03, 2016 Rise Set
Actual Time
Civil Twilight
Nautical Twilight
Astronomical Twilight
Moon
Length of Visible Light
Length of Day
Tomorrow will be .
, % of the Moon is Illuminated

Today's Extremes

Country Highs Country Lows

Community

WunderPhotos

Upload Photos

1,955,432 photos uploaded!

WunderBlog® & News

Nearby

Air Quality

  Air Quality AQ Index Pollutant
Not available.

Snow Depth

Station Depth Elevation

Earthquake Activity

City Distance Mag. Time & Date
Minimum magnitude displayed is 2.5.

Coastal Water Temperatures

Place Temperature

Stations

Nearby Weather Stations

Station Location Temp. Windchill Dew Point Humidity Wind Precip. Elev Updated Type